Time;durP1;ratioP1;P1;durP2;ratioP2;P2;SDS_P1;SDS_P2;PMS_P1;PMS_P2;Temp;Humidity;BMP_temperature;BMP_pressure;BME280_temperature;BME280_humidity;BME280_pressure;Samples;Min_cycle;Max_cycle;Signal;HPM_P1;HPM_P2
2021/11/19 00:02:17;;;;;;;8.13;6.32;;;2.10;99.90;;;;;;5026495;28;20816;-70
2021/11/19 00:04:46;;;;;;;8.88;5.97;;;2.10;99.90;;;;;;5027061;28;20233;-69
2021/11/19 00:07:14;;;;;;;8.63;5.72;;;2.10;99.90;;;;;;5027397;28;20256;-69
2021/11/19 00:09:41;;;;;;;10.90;6.22;;;2.10;99.90;;;;;;5026570;28;20268;-69
2021/11/19 00:12:08;;;;;;;8.43;6.18;;;2.10;99.90;;;;;;5026509;28;20206;-69
2021/11/19 00:14:35;;;;;;;8.48;6.15;;;2.00;99.90;;;;;;5026993;28;20208;-70
2021/11/19 00:17:06;;;;;;;11.43;6.28;;;2.10;99.90;;;;;;5026509;28;20225;-69
2021/11/19 00:19:35;;;;;;;7.80;5.50;;;2.00;99.90;;;;;;5026159;28;20201;-69
2021/11/19 00:22:05;;;;;;;8.57;6.90;;;2.00;99.90;;;;;;5026008;28;20198;-69
2021/11/19 00:24:33;;;;;;;7.05;5.78;;;2.00;99.90;;;;;;5026443;28;20202;-68
2021/11/19 00:27:00;;;;;;;6.65;5.35;;;2.00;99.90;;;;;;5025925;28;20316;-70
2021/11/19 00:29:27;;;;;;;6.43;5.35;;;2.00;99.90;;;;;;5027632;28;20548;-69
2021/11/19 00:31:54;;;;;;;7.40;6.22;;;1.90;99.90;;;;;;5094561;22;20242;-92
2021/11/19 00:34:23;;;;;;;9.00;6.32;;;1.90;99.90;;;;;;5096062;28;20210;-94
2021/11/19 00:36:55;;;;;;;9.65;6.70;;;1.90;99.90;;;;;;5071983;22;20235;-67
2021/11/19 00:39:25;;;;;;;8.80;6.38;;;1.90;99.90;;;;;;5049589;28;20197;-67
2021/11/19 00:41:52;;;;;;;6.97;6.10;;;1.90;99.90;;;;;;5049640;28;20205;-69
2021/11/19 00:44:21;;;;;;;11.60;6.78;;;1.90;99.90;;;;;;5049738;28;20197;-67
2021/11/19 00:46:50;;;;;;;8.02;6.90;;;1.90;99.90;;;;;;5049898;28;20756;-67
2021/11/19 00:49:19;;;;;;;8.80;6.22;;;1.90;99.90;;;;;;5050000;28;20598;-67
2021/11/19 00:51:48;;;;;;;9.13;6.60;;;1.90;99.90;;;;;;5049751;28;20205;-67
2021/11/19 00:54:15;;;;;;;7.72;6.60;;;1.90;99.90;;;;;;5050514;28;20240;-67
2021/11/19 00:56:46;;;;;;;9.00;6.90;;;1.90;99.90;;;;;;5049803;28;20675;-67
2021/11/19 00:59:16;;;;;;;8.27;6.95;;;1.90;99.90;;;;;;5050216;28;20208;-67
2021/11/19 01:01:59;;;;;;;9.02;7.38;;;2.00;99.90;;;;;;5049816;28;20209;-67
2021/11/19 01:04:26;;;;;;;8.88;7.40;;;2.10;99.90;;;;;;5049658;28;20201;-67
2021/11/19 01:06:53;;;;;;;9.05;7.20;;;2.20;99.90;;;;;;5052297;28;20224;-67
2021/11/19 01:09:24;;;;;;;8.90;7.18;;;2.20;99.90;;;;;;5053979;28;20665;-67
2021/11/19 01:11:53;;;;;;;9.82;7.60;;;2.30;99.90;;;;;;5053573;28;20211;-67
2021/11/19 01:14:24;;;;;;;8.32;7.07;;;2.30;99.90;;;;;;5053794;28;20235;-67
2021/11/19 01:16:54;;;;;;;14.50;7.07;;;2.40;99.90;;;;;;5053864;28;20232;-67
2021/11/19 01:19:23;;;;;;;7.85;6.75;;;2.40;99.90;;;;;;5053777;28;20691;-67
2021/11/19 01:21:58;;;;;;;8.40;7.50;;;2.40;99.90;;;;;;5053353;28;20201;-67
2021/11/19 01:24:26;;;;;;;8.93;6.45;;;2.40;99.90;;;;;;5053519;28;20200;-67
2021/11/19 01:26:55;;;;;;;9.25;7.75;;;2.40;99.90;;;;;;5053867;28;20221;-67
2021/11/19 01:29:22;;;;;;;10.65;7.22;;;2.40;99.90;;;;;;5053564;28;20201;-67
2021/11/19 01:31:52;;;;;;;11.40;7.28;;;2.40;99.90;;;;;;5053275;28;20696;-67
2021/11/19 01:34:19;;;;;;;9.43;7.10;;;2.50;99.90;;;;;;5053166;28;20271;-67
2021/11/19 01:36:46;;;;;;;9.18;7.57;;;2.50;99.90;;;;;;5053553;28;20603;-67
2021/11/19 01:39:15;;;;;;;9.30;6.57;;;2.50;99.90;;;;;;5053458;28;20717;-67
2021/11/19 01:41:45;;;;;;;8.80;7.18;;;2.50;99.90;;;;;;5052844;28;20573;-67
2021/11/19 01:44:20;;;;;;;8.38;7.43;;;2.50;99.90;;;;;;5053272;28;20610;-67
2021/11/19 01:46:49;;;;;;;8.63;7.28;;;2.60;99.90;;;;;;5053505;28;20220;-67
2021/11/19 01:49:16;;;;;;;8.60;6.95;;;2.50;99.90;;;;;;5053388;28;20205;-67
2021/11/19 01:51:48;;;;;;;11.02;7.03;;;2.50;99.90;;;;;;5052637;28;20227;-67
2021/11/19 01:54:23;;;;;;;8.25;6.43;;;2.50;99.90;;;;;;5053113;28;20225;-67
2021/11/19 01:56:54;;;;;;;10.02;7.18;;;2.50;99.90;;;;;;5052989;28;20270;-67
2021/11/19 01:59:28;;;;;;;8.13;6.53;;;2.50;99.90;;;;;;5053185;28;20212;-67
2021/11/19 02:01:58;;;;;;;7.70;6.45;;;2.50;99.90;;;;;;5052622;28;20208;-67
2021/11/19 02:04:35;;;;;;;7.93;6.43;;;2.50;99.90;;;;;;5053032;28;20386;-67
2021/11/19 02:07:06;;;;;;;10.38;7.38;;;2.50;99.90;;;;;;5052952;28;20236;-67
2021/11/19 02:09:41;;;;;;;7.38;6.45;;;2.50;99.90;;;;;;5052839;28;20220;-67
2021/11/19 02:12:18;;;;;;;7.50;6.65;;;2.40;99.90;;;;;;5052485;28;20204;-67
2021/11/19 02:14:55;;;;;;;7.60;5.72;;;2.30;99.90;;;;;;5052878;28;20235;-67
2021/11/19 02:17:22;;;;;;;8.73;6.38;;;2.30;99.90;;;;;;5051871;28;20220;-67
2021/11/19 02:19:55;;;;;;;8.55;7.40;;;2.20;99.90;;;;;;5052706;28;20216;-67
2021/11/19 02:22:25;;;;;;;8.85;6.35;;;2.20;99.90;;;;;;5052222;28;20205;-67
2021/11/19 02:24:54;;;;;;;7.10;5.70;;;2.10;99.90;;;;;;5052412;28;20202;-67
2021/11/19 02:27:23;;;;;;;7.40;5.80;;;2.10;99.90;;;;;;5052404;28;20712;-67
2021/11/19 02:29:55;;;;;;;7.53;6.03;;;2.10;99.90;;;;;;5052652;28;20201;-67
2021/11/19 02:32:26;;;;;;;6.75;5.70;;;2.00;99.90;;;;;;5051945;28;20251;-67
2021/11/19 02:34:53;;;;;;;9.35;6.63;;;2.00;99.90;;;;;;5052190;28;20250;-68
2021/11/19 02:37:26;;;;;;;9.32;6.88;;;2.00;99.90;;;;;;5052402;28;20232;-67
2021/11/19 02:39:55;;;;;;;8.02;5.85;;;2.00;99.90;;;;;;5052329;28;20204;-67
2021/11/19 02:42:26;;;;;;;7.97;6.82;;;2.10;99.90;;;;;;5051797;28;20220;-67
2021/11/19 02:44:58;;;;;;;9.23;7.15;;;2.10;99.90;;;;;;5052382;28;20213;-67
2021/11/19 02:47:27;;;;;;;9.80;7.63;;;2.20;99.90;;;;;;5052030;28;20229;-67
2021/11/19 02:49:54;;;;;;;9.10;8.20;;;2.20;99.90;;;;;;5052196;28;20201;-68
2021/11/19 02:52:24;;;;;;;7.05;6.18;;;2.30;99.90;;;;;;5051561;28;20207;-67
2021/11/19 02:54:52;;;;;;;8.07;6.32;;;2.30;99.90;;;;;;5052120;28;20213;-67
2021/11/19 02:57:19;;;;;;;8.18;6.32;;;2.30;99.90;;;;;;5051700;28;20766;-67
2021/11/19 02:59:48;;;;;;;7.57;6.28;;;2.30;99.90;;;;;;5051959;28;20204;-67
2021/11/19 03:02:20;;;;;;;7.50;6.15;;;2.20;99.90;;;;;;5051386;28;20839;-68
2021/11/19 03:04:49;;;;;;;6.75;5.88;;;2.20;99.90;;;;;;5051877;28;20557;-68
2021/11/19 03:07:17;;;;;;;8.00;6.15;;;2.10;99.90;;;;;;5051857;28;20225;-68
2021/11/19 03:09:46;;;;;;;7.05;6.35;;;2.00;99.90;;;;;;5051688;28;20205;-68
2021/11/19 03:12:17;;;;;;;8.25;6.35;;;2.00;99.90;;;;;;5051388;28;20212;-68
2021/11/19 03:14:45;;;;;;;7.90;6.47;;;2.00;99.90;;;;;;5051863;28;20224;-68
2021/11/19 03:17:13;;;;;;;7.07;6.38;;;1.90;99.90;;;;;;5051661;28;20228;-68
2021/11/19 03:19:41;;;;;;;6.55;5.85;;;1.90;99.90;;;;;;5051242;28;20682;-68
2021/11/19 03:22:10;;;;;;;8.63;5.97;;;1.80;99.90;;;;;;5051313;28;20201;-68
2021/11/19 03:24:37;;;;;;;7.45;6.13;;;1.70;99.90;;;;;;5051044;28;20204;-68
2021/11/19 03:27:05;;;;;;;10.13;6.78;;;1.70;99.90;;;;;;5051562;28;20612;-68
2021/11/19 03:29:32;;;;;;;7.80;6.07;;;1.60;99.90;;;;;;5051098;28;20205;-68
2021/11/19 03:31:58;;;;;;;7.47;6.40;;;1.60;99.90;;;;;;5051121;28;20582;-68
2021/11/19 03:34:25;;;;;;;7.47;6.70;;;1.50;99.90;;;;;;5050922;28;20217;-68
2021/11/19 03:36:56;;;;;;;7.95;6.20;;;1.50;99.90;;;;;;5051410;28;20233;-67
2021/11/19 03:39:25;;;;;;;7.95;6.38;;;1.50;99.90;;;;;;5051044;28;20204;-67
2021/11/19 03:41:56;;;;;;;8.30;6.47;;;1.40;99.90;;;;;;5050920;28;20637;-67
2021/11/19 03:44:25;;;;;;;7.82;5.82;;;1.40;99.90;;;;;;5051185;28;20205;-67
2021/11/19 03:47:05;;;;;;;6.40;5.30;;;1.40;99.90;;;;;;5051114;28;20239;-67
2021/11/19 03:49:33;;;;;;;7.47;6.78;;;1.40;99.90;;;;;;5051122;28;20224;-67
2021/11/19 03:52:05;;;;;;;7.43;5.85;;;1.40;99.90;;;;;;5050559;28;20201;-67
2021/11/19 03:54:34;;;;;;;8.27;6.43;;;1.40;99.90;;;;;;5050675;28;20225;-67
2021/11/19 03:57:02;;;;;;;6.65;5.68;;;1.30;99.90;;;;;;5050907;28;20581;-67
2021/11/19 03:59:29;;;;;;;10.25;7.03;;;1.30;99.90;;;;;;5050865;28;20224;-67
2021/11/19 04:01:57;;;;;;;9.32;6.93;;;1.30;99.90;;;;;;5050392;28;20204;-67
2021/11/19 04:04:29;;;;;;;7.75;5.63;;;1.20;99.90;;;;;;5050763;28;20197;-67
2021/11/19 04:06:57;;;;;;;8.55;6.30;;;1.20;99.90;;;;;;5050813;28;20221;-67
2021/11/19 04:09:26;;;;;;;7.10;6.15;;;1.10;99.90;;;;;;5050688;28;20201;-67
2021/11/19 04:11:53;;;;;;;8.32;5.90;;;1.10;99.90;;;;;;5050394;28;20209;-67
2021/11/19 04:14:20;;;;;;;6.63;5.93;;;1.10;99.90;;;;;;5050454;28;20224;-67
2021/11/19 04:16:50;;;;;;;7.80;5.78;;;1.10;99.90;;;;;;5050621;28;20225;-67
2021/11/19 04:19:19;;;;;;;7.75;6.18;;;1.00;99.90;;;;;;5050550;28;20240;-67
2021/11/19 04:21:48;;;;;;;7.47;6.78;;;1.10;99.90;;;;;;5050194;28;20742;-67
2021/11/19 04:24:18;;;;;;;6.93;5.50;;;1.00;99.90;;;;;;5050267;28;20203;-67
2021/11/19 04:26:46;;;;;;;8.98;6.40;;;1.00;99.90;;;;;;5050581;28;20225;-67
2021/11/19 04:29:12;;;;;;;8.70;7.38;;;1.00;99.90;;;;;;5050507;28;20201;-68
2021/11/19 04:31:40;;;;;;;7.20;6.50;;;1.00;99.90;;;;;;5049581;28;20204;-67
2021/11/19 04:34:09;;;;;;;9.02;6.22;;;1.00;99.90;;;;;;5049478;28;20213;-67
2021/11/19 04:36:37;;;;;;;8.88;6.38;;;1.00;99.90;;;;;;5048866;28;20307;-67
2021/11/19 04:39:05;;;;;;;6.10;5.45;;;0.90;99.90;;;;;;5049256;28;20197;-67
2021/11/19 04:41:32;;;;;;;7.10;5.43;;;0.90;99.90;;;;;;5047643;28;20200;-67
2021/11/19 04:44:01;;;;;;;8.23;6.88;;;0.90;99.90;;;;;;5046422;28;20668;-67
2021/11/19 04:46:27;;;;;;;9.65;6.18;;;0.90;99.90;;;;;;5048649;28;20213;-67
2021/11/19 04:48:54;;;;;;;7.60;6.50;;;0.90;99.90;;;;;;5045868;28;20197;-67
2021/11/19 04:51:24;;;;;;;7.00;6.00;;;0.80;99.90;;;;;;5039077;28;20280;-67
2021/11/19 04:53:52;;;;;;;8.02;6.78;;;0.90;99.90;;;;;;5045652;28;20686;-67
2021/11/19 04:56:20;;;;;;;7.03;5.65;;;0.80;99.90;;;;;;5046456;28;20197;-67
2021/11/19 04:58:48;;;;;;;8.73;5.75;;;0.80;99.90;;;;;;5049536;28;20193;-67
2021/11/19 05:01:18;;;;;;;9.07;6.40;;;0.80;99.90;;;;;;5046519;28;20193;-67
2021/11/19 05:03:46;;;;;;;7.55;6.00;;;0.90;99.90;;;;;;5048754;28;20208;-67
2021/11/19 05:06:13;;;;;;;7.85;5.55;;;0.90;99.90;;;;;;5048870;28;20196;-67
2021/11/19 05:08:39;;;;;;;6.63;5.85;;;0.90;99.90;;;;;;5045864;28;20201;-67
2021/11/19 05:11:09;;;;;;;8.95;6.13;;;0.90;99.90;;;;;;5047417;28;20204;-67
2021/11/19 05:13:38;;;;;;;10.48;6.45;;;0.90;99.90;;;;;;5047892;28;20200;-67
2021/11/19 05:16:07;;;;;;;6.55;5.75;;;0.90;99.90;;;;;;5047862;28;20200;-67
2021/11/19 05:18:36;;;;;;;8.43;6.75;;;0.90;99.90;;;;;;5049348;28;20205;-67
2021/11/19 05:21:04;;;;;;;11.27;7.28;;;0.90;99.90;;;;;;5049481;28;20224;-67
2021/11/19 05:23:31;;;;;;;7.80;5.93;;;0.90;99.90;;;;;;5049504;28;20205;-67
2021/11/19 05:25:58;;;;;;;9.63;6.85;;;0.90;99.90;;;;;;5049773;28;20460;-68
2021/11/19 05:28:26;;;;;;;7.75;6.85;;;0.90;99.90;;;;;;5049131;28;20232;-68
2021/11/19 05:30:53;;;;;;;10.30;6.45;;;0.80;99.90;;;;;;5048575;28;20201;-68
2021/11/19 05:33:24;;;;;;;9.95;7.03;;;0.80;99.90;;;;;;5049160;28;20207;-68
2021/11/19 05:35:52;;;;;;;10.45;6.50;;;0.80;99.90;;;;;;5047947;28;20231;-68
2021/11/19 05:38:21;;;;;;;7.28;5.90;;;0.80;99.90;;;;;;5049674;28;20217;-69
2021/11/19 05:40:49;;;;;;;8.73;6.90;;;1.00;99.90;;;;;;5049454;28;20234;-68
2021/11/19 05:43:16;;;;;;;10.73;7.40;;;1.30;99.90;;;;;;5049408;28;20197;-68
2021/11/19 05:45:44;;;;;;;10.68;7.35;;;1.50;99.90;;;;;;5049375;28;20625;-68
2021/11/19 05:48:11;;;;;;;8.23;6.97;;;1.50;99.90;;;;;;5049445;28;20225;-68
2021/11/19 05:50:42;;;;;;;7.93;7.13;;;1.40;99.90;;;;;;5049110;28;20738;-68
2021/11/19 05:53:11;;;;;;;9.32;7.25;;;1.30;99.90;;;;;;5049873;28;20204;-68
2021/11/19 05:55:41;;;;;;;11.07;6.72;;;1.20;99.90;;;;;;5052749;28;20229;-68
2021/11/19 05:58:09;;;;;;;6.93;5.88;;;1.20;99.90;;;;;;5053086;28;20618;-68
2021/11/19 06:00:40;;;;;;;8.50;6.70;;;1.20;99.90;;;;;;5052612;28;20205;-68
2021/11/19 06:03:09;;;;;;;8.40;7.05;;;1.10;99.90;;;;;;5052376;28;20262;-68
2021/11/19 06:05:37;;;;;;;7.60;6.10;;;1.10;99.90;;;;;;5052497;28;20640;-68
2021/11/19 06:08:04;;;;;;;12.75;7.10;;;1.10;99.90;;;;;;5052539;28;20805;-68
2021/11/19 06:10:32;;;;;;;9.43;5.80;;;1.00;99.90;;;;;;5052514;28;20212;-68
2021/11/19 06:13:05;;;;;;;8.00;6.15;;;1.00;99.90;;;;;;5052608;28;20208;-68
2021/11/19 06:15:36;;;;;;;8.00;6.18;;;1.00;99.90;;;;;;5052045;28;20228;-68
2021/11/19 06:18:06;;;;;;;7.47;6.50;;;1.00;99.90;;;;;;5052566;28;20221;-68
2021/11/19 06:20:37;;;;;;;11.85;7.47;;;1.00;99.90;;;;;;5051937;28;20207;-68
2021/11/19 06:23:07;;;;;;;9.73;6.47;;;1.00;99.90;;;;;;5052589;28;20201;-68
2021/11/19 06:25:36;;;;;;;9.85;6.65;;;1.00;99.90;;;;;;5048926;28;20570;-68
2021/11/19 06:28:06;;;;;;;10.45;7.35;;;1.00;99.90;;;;;;5052602;28;20323;-68
2021/11/19 06:30:33;;;;;;;10.10;6.95;;;1.00;99.90;;;;;;5051740;28;20629;-68
2021/11/19 06:33:00;;;;;;;10.40;7.00;;;1.00;99.90;;;;;;5090923;22;20221;-92
2021/11/19 06:35:28;;;;;;;11.13;6.47;;;1.00;99.90;;;;;;5054337;28;20221;-92
2021/11/19 06:37:55;;;;;;;8.45;6.75;;;1.00;99.90;;;;;;5055904;28;20213;-92
2021/11/19 06:40:25;;;;;;;9.02;6.45;;;0.90;99.90;;;;;;5056972;28;20240;-92
2021/11/19 06:42:57;;;;;;;8.98;7.22;;;0.90;99.90;;;;;;5055797;28;20227;-92
2021/11/19 06:45:25;;;;;;;12.38;7.05;;;0.90;99.90;;;;;;5054559;28;20197;-92
2021/11/19 06:47:53;;;;;;;7.90;6.75;;;0.90;99.90;;;;;;5054679;28;20236;-91
2021/11/19 06:50:23;;;;;;;10.98;7.40;;;0.90;99.90;;;;;;5054790;28;20197;-91
2021/11/19 06:52:51;;;;;;;8.05;6.90;;;0.90;99.90;;;;;;5054041;28;20221;-91
2021/11/19 06:55:17;;;;;;;9.60;7.30;;;0.90;99.90;;;;;;5054748;28;20225;-91
2021/11/19 06:57:45;;;;;;;11.93;8.20;;;0.90;99.90;;;;;;5054392;28;20737;-91
2021/11/19 07:00:16;;;;;;;11.68;8.57;;;0.90;99.90;;;;;;5056120;28;20211;-91
2021/11/19 07:02:43;;;;;;;10.55;7.80;;;0.90;99.90;;;;;;5053887;28;20225;-91
2021/11/19 07:05:20;;;;;;;8.55;7.55;;;1.00;99.90;;;;;;5054244;28;20245;-92
2021/11/19 07:07:47;;;;;;;8.55;7.20;;;1.00;99.90;;;;;;5054304;28;20497;-92
2021/11/19 07:10:15;;;;;;;10.15;8.55;;;1.00;99.90;;;;;;5054161;28;20221;-92
2021/11/19 07:12:42;;;;;;;11.50;7.25;;;1.00;99.90;;;;;;5054689;28;20259;-91
2021/11/19 07:15:16;;;;;;;9.70;7.97;;;1.00;99.90;;;;;;5053809;28;20221;-91
2021/11/19 07:17:43;;;;;;;9.20;6.25;;;1.00;99.90;;;;;;5054195;28;20212;-92
2021/11/19 07:20:11;;;;;;;9.13;7.15;;;1.00;99.90;;;;;;5054489;28;20220;-91
2021/11/19 07:22:39;;;;;;;10.27;8.07;;;1.10;99.90;;;;;;5053819;28;20283;-91
2021/11/19 07:25:17;;;;;;;10.27;8.13;;;1.10;99.90;;;;;;5068068;28;20185;-94
2021/11/19 07:27:45;;;;;;;10.13;7.05;;;1.20;99.90;;;;;;5082114;22;20204;-67
2021/11/19 07:30:17;;;;;;;8.25;7.32;;;1.20;99.90;;;;;;5051114;28;20193;-67
2021/11/19 07:32:44;;;;;;;8.18;7.25;;;1.30;99.90;;;;;;5050471;28;20231;-67
2021/11/19 07:35:11;;;;;;;9.98;7.32;;;1.40;99.90;;;;;;5051327;28;20225;-67
2021/11/19 07:37:41;;;;;;;8.73;7.05;;;1.40;99.90;;;;;;5050691;28;20220;-67
2021/11/19 07:40:11;;;;;;;7.45;6.53;;;1.50;99.90;;;;;;5051320;28;20769;-67
2021/11/19 07:42:39;;;;;;;9.95;7.18;;;1.50;99.90;;;;;;5050480;28;20201;-67
2021/11/19 07:45:09;;;;;;;7.93;6.30;;;1.60;99.90;;;;;;5051386;28;20205;-69
2021/11/19 07:47:37;;;;;;;7.53;6.30;;;1.70;99.90;;;;;;5050897;28;20546;-68
2021/11/19 07:50:08;;;;;;;8.82;6.95;;;1.70;99.90;;;;;;5050982;28;20209;-68
2021/11/19 07:52:35;;;;;;;8.55;6.50;;;1.80;99.90;;;;;;5050324;28;20205;-67
2021/11/19 07:55:03;;;;;;;7.78;6.40;;;1.90;99.90;;;;;;5050687;28;20220;-67
2021/11/19 07:57:29;;;;;;;10.23;7.00;;;1.90;99.90;;;;;;5050461;28;20224;-68
2021/11/19 07:59:56;;;;;;;7.78;6.68;;;2.00;99.90;;;;;;5050797;28;20335;-68
2021/11/19 08:02:23;;;;;;;10.00;7.55;;;2.00;99.90;;;;;;5050121;28;20672;-68
2021/11/19 08:04:52;;;;;;;8.05;6.63;;;2.00;99.90;;;;;;5056676;28;20209;-65
2021/11/19 08:07:19;;;;;;;8.02;7.13;;;2.10;99.90;;;;;;5049122;28;20229;-66
2021/11/19 08:09:46;;;;;;;7.85;6.43;;;2.20;99.90;;;;;;5048484;28;20277;-66
2021/11/19 08:12:13;;;;;;;11.45;7.85;;;2.20;99.90;;;;;;5048217;28;20450;-66
2021/11/19 08:14:40;;;;;;;8.27;6.63;;;2.30;99.90;;;;;;5049120;28;20255;-65
2021/11/19 08:17:17;;;;;;;8.98;7.05;;;2.30;99.90;;;;;;5047457;28;20326;-66
2021/11/19 08:19:46;;;;;;;8.38;7.30;;;2.40;99.90;;;;;;5048804;28;20227;-65
2021/11/19 08:22:16;;;;;;;9.80;7.38;;;2.50;99.90;;;;;;5048291;28;20209;-65
2021/11/19 08:24:45;;;;;;;11.80;7.50;;;2.60;99.90;;;;;;5049155;28;20726;-66
2021/11/19 08:27:15;;;;;;;11.52;7.85;;;2.70;99.90;;;;;;5048574;28;20221;-66
2021/11/19 08:29:45;;;;;;;12.02;9.07;;;2.80;99.90;;;;;;5048584;28;20303;-67
2021/11/19 08:32:13;;;;;;;10.60;7.28;;;2.90;99.90;;;;;;5048851;28;20381;-66
2021/11/19 08:34:41;;;;;;;10.65;8.25;;;3.00;99.90;;;;;;5048161;28;20205;-66
2021/11/19 08:37:09;;;;;;;10.77;7.70;;;3.10;99.90;;;;;;5048906;28;20252;-67
2021/11/19 08:39:39;;;;;;;11.40;8.45;;;3.20;99.90;;;;;;5048340;28;20205;-66
2021/11/19 08:42:09;;;;;;;12.98;8.98;;;3.30;99.90;;;;;;5048363;28;20236;-66
2021/11/19 08:44:37;;;;;;;10.90;9.05;;;3.40;99.90;;;;;;5048767;28;20228;-66
2021/11/19 08:47:05;;;;;;;17.45;10.20;;;3.50;99.90;;;;;;5048201;28;20598;-66
2021/11/19 08:49:34;;;;;;;17.63;9.23;;;3.50;99.90;;;;;;5048362;28;20652;-68
2021/11/19 08:52:02;;;;;;;13.40;9.77;;;3.60;99.90;;;;;;5048214;28;20201;-69
2021/11/19 08:54:29;;;;;;;18.85;9.52;;;3.70;99.90;;;;;;5048040;28;20208;-68
2021/11/19 08:56:59;;;;;;;16.58;9.77;;;3.80;99.90;;;;;;5048249;28;20224;-69
2021/11/19 08:59:29;;;;;;;14.18;9.95;;;4.00;99.90;;;;;;5048615;28;20590;-68
2021/11/19 09:01:58;;;;;;;15.48;9.65;;;4.00;99.90;;;;;;5046150;28;20232;-68
2021/11/19 09:04:25;;;;;;;15.25;10.45;;;4.10;99.90;;;;;;5046100;28;20201;-68
2021/11/19 09:06:54;;;;;;;16.40;10.07;;;4.20;99.90;;;;;;5049239;28;20221;-68
2021/11/19 09:09:22;;;;;;;16.52;10.27;;;4.40;99.90;;;;;;5045042;28;20361;-68
2021/11/19 09:11:50;;;;;;;21.92;12.25;;;4.40;99.90;;;;;;5046733;28;20603;-68
2021/11/19 09:14:19;;;;;;;22.17;12.57;;;4.50;99.90;;;;;;5048782;28;20198;-68
2021/11/19 09:16:59;;;;;;;19.90;10.45;;;4.60;99.90;;;;;;5048949;28;20279;-68
2021/11/19 09:19:33;;;;;;;17.63;11.98;;;4.60;99.90;;;;;;5048962;28;20567;-68
2021/11/19 09:22:19;;;;;;;15.07;10.30;;;4.60;99.90;;;;;;5048422;28;20204;-69
2021/11/19 09:24:46;;;;;;;21.60;10.57;;;4.80;99.90;;;;;;5048737;28;20204;-68
2021/11/19 09:27:16;;;;;;;20.30;11.10;;;4.80;99.90;;;;;;5042922;28;20742;-69
2021/11/19 09:29:46;;;;;;;20.25;11.25;;;4.90;99.90;;;;;;5052900;28;20266;-68
2021/11/19 09:32:14;;;;;;;18.77;10.88;;;5.00;99.90;;;;;;5051610;28;20757;-68
2021/11/19 09:34:43;;;;;;;18.33;12.68;;;5.10;99.90;;;;;;5052359;28;20211;-68
2021/11/19 09:37:12;;;;;;;15.63;9.43;;;5.20;99.90;;;;;;5052267;28;20229;-68
2021/11/19 09:39:39;;;;;;;16.25;11.27;;;5.20;99.90;;;;;;5051986;28;20209;-68
2021/11/19 09:42:13;;;;;;;15.15;10.85;;;5.20;99.90;;;;;;5051750;28;20205;-68
2021/11/19 09:45:03;;;;;;;18.63;12.05;;;5.30;99.90;;;;;;5051954;28;20762;-68
2021/11/19 09:47:50;;;;;;;16.17;10.52;;;5.30;99.90;;;;;;5051839;28;20228;-67
2021/11/19 09:50:52;;;;;;;16.25;11.20;;;5.50;99.90;;;;;;5052326;28;20566;-68
2021/11/19 09:53:51;;;;;;;18.05;9.93;;;5.50;99.90;;;;;;5052339;28;20200;-68
2021/11/19 09:56:37;;;;;;;17.50;10.40;;;5.40;99.90;;;;;;5051201;28;20227;-67
2021/11/19 09:59:17;;;;;;;20.45;10.82;;;5.50;99.90;;;;;;5052396;28;20208;-68
2021/11/19 10:02:36;;;;;;;17.52;10.73;;;5.60;99.90;;;;;;5051563;28;20213;-69
2021/11/19 10:05:16;;;;;;;13.43;10.00;;;5.80;99.90;;;;;;5052244;28;20614;-68
2021/11/19 10:07:53;;;;;;;20.48;11.45;;;6.20;99.90;;;;;;5051942;28;20221;-68
2021/11/19 10:10:52;;;;;;;16.20;10.13;;;6.90;99.90;;;;;;5051534;28;20569;-68
2021/11/19 10:13:37;;;;;;;16.25;9.48;;;8.20;99.90;;;;;;5043158;28;20296;-68
2021/11/19 10:16:12;;;;;;;19.77;9.85;;;9.40;99.90;;;;;;5051732;28;20583;-69
2021/11/19 10:18:45;;;;;;;14.85;8.70;;;10.20;99.90;;;;;;5051506;28;20232;-68
2021/11/19 10:21:17;;;;;;;10.15;7.03;;;11.00;99.90;;;;;;5051645;28;20197;-69
2021/11/19 10:23:47;;;;;;;10.65;7.15;;;11.90;99.90;;;;;;5051790;28;20574;-69
2021/11/19 10:26:19;;;;;;;9.23;6.95;;;13.20;99.90;;;;;;5050741;28;20201;-69
2021/11/19 10:28:49;;;;;;;12.30;6.95;;;14.80;99.90;;;;;;5051716;28;20213;-69
2021/11/19 10:31:18;;;;;;;8.13;6.37;;;16.10;99.90;;;;;;5051726;28;20629;-69
2021/11/19 10:33:51;;;;;;;11.90;6.73;;;17.00;99.90;;;;;;5051429;28;20463;-69
2021/11/19 10:36:32;;;;;;;20.97;8.60;;;17.10;99.90;;;;;;5052229;28;20502;-69
2021/11/19 10:39:27;;;;;;;8.63;6.50;;;17.20;99.90;;;;;;5052006;28;20459;-69
2021/11/19 10:42:27;;;;;;;7.90;5.47;;;17.40;99.90;;;;;;5051796;28;20874;-69
2021/11/19 10:45:25;;;;;;;10.40;6.70;;;17.60;99.90;;;;;;5052326;28;20546;-69
2021/11/19 10:48:25;;;;;;;6.70;5.33;;;17.80;99.90;;;;;;5052012;28;20479;-69
2021/11/19 10:51:46;;;;;;;9.40;6.90;;;17.50;99.90;;;;;;5051847;28;20467;-69
2021/11/19 10:54:49;;;;;;;7.27;6.43;;;17.20;99.90;;;;;;5049242;28;20464;-69
2021/11/19 10:57:50;;;;;;;13.80;9.00;;;18.00;99.70;;;;;;5037320;28;20899;-69
2021/11/19 11:00:27;;;;;;;9.43;6.70;;;18.40;99.10;;;;;;5047431;28;20486;-69
2021/11/19 11:02:56;;;;;;;8.17;7.17;;;18.20;99.30;;;;;;5048838;28;20467;-69
2021/11/19 11:05:30;;;;;;;8.93;7.30;;;18.50;99.50;;;;;;5050043;28;20464;-69
2021/11/19 11:08:21;;;;;;;10.70;7.40;;;19.20;98.80;;;;;;5050508;28;20483;-68
2021/11/19 11:10:53;;;;;;;8.70;7.50;;;20.00;97.60;;;;;;5047698;28;20978;-68
2021/11/19 11:13:28;;;;;;;18.40;8.27;;;20.60;97.10;;;;;;5050369;28;20459;-69
2021/11/19 11:15:58;;;;;;;11.93;7.73;;;21.00;95.90;;;;;;5050038;28;20490;-69
2021/11/19 11:18:27;;;;;;;12.33;9.47;;;21.00;95.70;;;;;;5050403;28;20487;-68
2021/11/19 11:21:18;;;;;;;14.33;8.83;;;20.60;95.80;;;;;;5049046;28;20955;-68
2021/11/19 11:24:12;;;;;;;10.07;8.47;;;20.00;96.30;;;;;;5049857;28;20463;-68
2021/11/19 11:26:45;;;;;;;15.30;9.10;;;19.30;96.60;;;;;;5047549;28;20519;-68
2021/11/19 11:29:56;;;;;;;13.07;8.87;;;18.50;97.10;;;;;;5049836;28;20463;-68
2021/11/19 11:32:50;;;;;;;12.77;8.50;;;18.00;97.40;;;;;;4987676;28;20466;-68
2021/11/19 11:35:28;;;;;;;10.60;8.80;;;17.50;97.90;;;;;;4987575;28;21157;-68
2021/11/19 11:38:18;;;;;;;10.93;8.10;;;16.60;98.80;;;;;;5036115;28;20900;-68
2021/11/19 11:41:05;;;;;;;11.13;8.63;;;16.60;98.90;;;;;;5048977;28;20606;-68
2021/11/19 11:43:36;;;;;;;14.50;9.87;;;17.10;98.90;;;;;;5049841;28;20456;-68
2021/11/19 11:46:25;;;;;;;17.27;10.10;;;16.90;98.70;;;;;;5049524;28;20479;-68
2021/11/19 11:49:16;;;;;;;16.43;10.03;;;16.50;99.00;;;;;;5049136;28;20487;-68
2021/11/19 11:52:01;;;;;;;15.40;10.00;;;16.50;99.50;;;;;;5047671;28;20951;-68
2021/11/19 11:54:32;;;;;;;10.10;8.03;;;16.60;99.60;;;;;;5050253;28;20468;-68
2021/11/19 11:57:30;;;;;;;14.80;10.43;;;16.60;99.90;;;;;;5048974;28;20867;-68
2021/11/19 12:00:02;;;;;;;13.77;9.23;;;16.50;99.70;;;;;;5044851;28;20459;-68
2021/11/19 12:02:36;;;;;;;11.53;8.50;;;16.70;99.40;;;;;;5048918;28;20459;-68
2021/11/19 12:05:35;;;;;;;11.23;8.23;;;16.90;99.30;;;;;;5048964;28;20466;-68
2021/11/19 12:08:40;;;;;;;12.17;8.57;;;17.10;98.80;;;;;;5049448;28;20483;-67
2021/11/19 12:11:25;;;;;;;12.50;8.70;;;16.80;98.70;;;;;;5045847;28;20470;-68
2021/11/19 12:13:58;;;;;;;12.70;8.80;;;15.60;99.90;;;;;;5049082;28;20471;-67
2021/11/19 12:16:39;;;;;;;17.40;9.37;;;15.50;99.90;;;;;;5049113;28;20502;-68
2021/11/19 12:19:12;;;;;;;12.00;8.47;;;15.50;99.90;;;;;;5049030;28;20808;-67
2021/11/19 12:21:47;;;;;;;9.30;7.67;;;15.50;99.90;;;;;;5048070;28;21120;-70
2021/11/19 12:24:20;;;;;;;12.90;7.77;;;15.20;99.90;;;;;;5047946;28;20467;-68
2021/11/19 12:26:57;;;;;;;9.60;8.03;;;15.00;99.90;;;;;;5047663;28;20479;-69
2021/11/19 12:29:30;;;;;;;9.60;8.07;;;15.00;99.90;;;;;;5048802;28;20507;-68
2021/11/19 12:32:08;;;;;;;15.63;8.30;;;14.80;99.90;;;;;;5046833;28;21160;-68
2021/11/19 12:34:38;;;;;;;11.27;8.60;;;14.70;99.90;;;;;;5048504;28;20471;-68
2021/11/19 12:37:09;;;;;;;12.53;7.80;;;14.60;99.90;;;;;;5048885;28;20994;-68
2021/11/19 12:39:38;;;;;;;10.10;7.23;;;14.50;99.90;;;;;;5048604;28;20463;-68
2021/11/19 12:42:10;;;;;;;11.75;8.80;;;14.00;99.90;;;;;;5047993;28;20551;-69
2021/11/19 12:44:57;;;;;;;8.85;7.38;;;13.50;99.90;;;;;;5048201;28;20197;-68
2021/11/19 12:47:47;;;;;;;10.90;8.23;;;13.00;99.90;;;;;;5049277;28;20278;-68
2021/11/19 12:50:28;;;;;;;13.65;9.07;;;12.60;99.90;;;;;;5048592;28;20620;-69
2021/11/19 12:53:09;;;;;;;12.65;9.02;;;12.20;99.90;;;;;;5048215;28;20201;-69
2021/11/19 12:55:41;;;;;;;13.20;9.57;;;12.00;99.90;;;;;;5047672;28;20201;-69
2021/11/19 12:58:25;;;;;;;12.82;9.30;;;12.20;99.90;;;;;;5048961;28;20235;-68
2021/11/19 13:01:05;;;;;;;9.93;8.32;;;12.50;99.90;;;;;;5051261;28;20254;-68
2021/11/19 13:03:55;;;;;;;12.10;8.75;;;12.60;99.90;;;;;;5071822;28;20314;-69
2021/11/19 13:06:36;;;;;;;13.38;7.78;;;12.90;99.90;;;;;;5072904;28;20224;-69
2021/11/19 13:09:41;;;;;;;14.95;9.23;;;13.10;99.90;;;;;;5073379;28;20200;-69
2021/11/19 13:12:16;;;;;;;11.65;9.40;;;12.90;99.90;;;;;;5072025;28;20204;-69
2021/11/19 13:14:47;;;;;;;12.88;8.23;;;12.60;99.90;;;;;;5072819;28;20200;-68
2021/11/19 13:17:42;;;;;;;11.70;8.82;;;12.20;99.90;;;;;;5072552;28;20232;-68
2021/11/19 13:20:59;;;;;;;14.57;9.32;;;11.90;99.90;;;;;;5072827;28;20757;-69